Time;durP1;ratioP1;P1;durP2;ratioP2;P2;SDS_P1;SDS_P2;PMS_P1;PMS_P2;Temp;Humidity;BMP_temperature;BMP_pressure;BME280_temperature;BME280_humidity;BME280_pressure;Samples;Min_cycle;Max_cycle;Signal;HPM_P1;HPM_P2
2021/11/18 00:00:46;;;;;;;7.07;3.70;;;5.30;99.90;;;;;;5022028;28;20073;-53
2021/11/18 00:03:13;;;;;;;4.50;2.47;;;5.30;99.90;;;;;;5023998;28;20583;-53
2021/11/18 00:05:40;;;;;;;5.57;2.40;;;5.30;99.90;;;;;;5024304;28;20156;-50
2021/11/18 00:08:07;;;;;;;4.90;2.00;;;5.30;99.90;;;;;;5023153;28;20392;-50
2021/11/18 00:10:36;;;;;;;4.15;2.00;;;5.30;99.90;;;;;;5022538;28;20481;-53
2021/11/18 00:13:03;;;;;;;6.95;2.75;;;5.30;99.90;;;;;;5023291;28;20128;-49
2021/11/18 00:15:30;;;;;;;4.57;2.20;;;5.20;99.90;;;;;;5023077;28;20092;-52
2021/11/18 00:18:05;;;;;;;4.18;2.60;;;5.20;99.90;;;;;;5022849;28;20580;-50
2021/11/18 00:20:59;;;;;;;3.88;1.98;;;5.20;99.90;;;;;;5022439;28;20093;-55
2021/11/18 00:23:27;;;;;;;;;;;5.20;99.90;;;;;;5016621;28;20077;-49
2021/11/18 00:25:54;;;;;;;5.72;1.77;;;5.20;99.90;;;;;;5023293;28;19971;-51
2021/11/18 00:28:20;;;;;;;3.88;1.80;;;5.20;99.90;;;;;;5022863;28;20046;-51
2021/11/18 00:30:47;;;;;;;4.20;2.10;;;5.10;99.90;;;;;;5020954;28;20077;-53
2021/11/18 00:33:14;;;;;;;5.72;2.20;;;5.20;99.90;;;;;;5023932;28;20123;-52
2021/11/18 00:35:41;;;;;;;2.83;1.50;;;5.10;99.90;;;;;;5023441;28;20436;-49
2021/11/18 00:38:08;;;;;;;3.45;1.67;;;5.10;99.90;;;;;;5005868;28;20339;-53
2021/11/18 00:40:37;;;;;;;4.72;1.83;;;5.10;99.90;;;;;;5022701;28;20119;-53
2021/11/18 00:43:05;;;;;;;4.60;1.90;;;5.00;99.90;;;;;;5020735;28;20077;-53
2021/11/18 00:45:32;;;;;;;4.93;2.10;;;5.10;99.90;;;;;;5022577;28;20156;-52
2021/11/18 00:47:59;;;;;;;3.33;1.75;;;5.10;99.90;;;;;;5023878;28;20053;-53
2021/11/18 00:50:28;;;;;;;4.20;1.80;;;5.10;99.90;;;;;;5022946;28;20080;-51
2021/11/18 00:52:55;;;;;;;3.78;2.00;;;5.10;99.90;;;;;;5023176;28;20115;-53
2021/11/18 00:55:23;;;;;;;3.42;1.70;;;5.10;99.90;;;;;;5023182;28;20159;-53
2021/11/18 00:57:49;;;;;;;2.67;1.40;;;5.20;99.90;;;;;;5022520;28;20136;-51
2021/11/18 01:00:21;;;;;;;4.95;2.50;;;5.10;99.90;;;;;;5022039;28;20076;-53
2021/11/18 01:02:48;;;;;;;3.60;1.88;;;5.20;99.90;;;;;;5022919;28;20141;-53
2021/11/18 01:05:16;;;;;;;4.72;1.80;;;5.20;99.90;;;;;;5023120;28;20045;-52
2021/11/18 01:07:43;;;;;;;3.33;1.70;;;5.20;99.90;;;;;;5023359;28;20779;-53
2021/11/18 01:10:11;;;;;;;5.05;1.55;;;5.30;99.90;;;;;;5026059;28;20080;-54
2021/11/18 01:12:38;;;;;;;6.32;2.95;;;5.30;99.90;;;;;;5023644;28;20480;-51
2021/11/18 01:15:06;;;;;;;3.80;1.42;;;5.30;99.90;;;;;;5025044;28;20542;-52
2021/11/18 01:17:33;;;;;;;4.40;1.63;;;5.40;99.90;;;;;;5026250;28;20057;-49
2021/11/18 01:19:59;;;;;;;2.65;1.42;;;5.40;99.90;;;;;;5025849;28;20096;-50
2021/11/18 01:22:26;;;;;;;4.13;1.50;;;5.40;99.90;;;;;;5025786;28;20084;-48
2021/11/18 01:24:53;;;;;;;3.85;1.50;;;5.50;99.90;;;;;;5025936;28;20125;-48
2021/11/18 01:27:20;;;;;;;3.72;1.40;;;5.60;99.90;;;;;;5024324;28;20418;-51
2021/11/18 01:29:46;;;;;;;2.72;1.17;;;5.60;99.90;;;;;;5023609;28;20137;-51
2021/11/18 01:32:13;;;;;;;4.05;1.55;;;5.60;99.90;;;;;;5025886;28;20849;-50
2021/11/18 01:34:40;;;;;;;3.38;1.45;;;5.70;99.90;;;;;;5026136;28;20489;-51
2021/11/18 01:37:07;;;;;;;4.03;1.55;;;5.80;99.90;;;;;;5025753;28;20137;-49
2021/11/18 01:39:34;;;;;;;4.10;1.40;;;5.90;99.90;;;;;;5024424;28;20085;-49
2021/11/18 01:42:01;;;;;;;3.97;1.40;;;6.00;99.90;;;;;;5024860;28;20084;-49
2021/11/18 01:44:40;;;;;;;3.22;1.48;;;6.10;99.90;;;;;;5023888;28;20172;-53
2021/11/18 01:47:10;;;;;;;3.92;1.48;;;6.10;99.90;;;;;;5025690;28;20073;-54
2021/11/18 01:49:38;;;;;;;3.80;1.50;;;6.20;99.90;;;;;;5024915;28;20081;-54
2021/11/18 01:52:05;;;;;;;4.43;1.35;;;6.30;99.90;;;;;;5025509;28;20556;-54
2021/11/18 01:54:34;;;;;;;4.95;1.60;;;6.40;99.90;;;;;;5024112;28;20073;-53
2021/11/18 01:57:04;;;;;;;4.60;1.30;;;6.40;99.90;;;;;;5025303;28;20111;-52
2021/11/18 01:59:33;;;;;;;5.00;1.42;;;6.50;99.90;;;;;;5024044;28;20127;-53
2021/11/18 02:02:00;;;;;;;3.22;1.60;;;6.60;99.90;;;;;;5023133;28;20080;-54
2021/11/18 02:04:29;;;;;;;3.70;2.00;;;6.60;99.90;;;;;;5024329;28;20507;-53
2021/11/18 02:07:06;;;;;;;4.90;1.50;;;6.60;99.90;;;;;;5024187;28;20045;-54
2021/11/18 02:09:38;;;;;;;3.42;1.48;;;6.70;99.90;;;;;;5023765;28;20077;-55
2021/11/18 02:12:15;;;;;;;3.38;1.15;;;6.80;99.90;;;;;;5022801;28;20111;-53
2021/11/18 02:14:42;;;;;;;3.83;1.30;;;6.90;99.90;;;;;;5022150;28;20556;-51
2021/11/18 02:17:10;;;;;;;5.10;1.33;;;7.00;99.90;;;;;;5023461;28;20081;-54
2021/11/18 02:19:39;;;;;;;5.22;1.63;;;7.10;99.90;;;;;;5023827;28;20076;-54
2021/11/18 02:22:06;;;;;;;5.38;1.70;;;7.20;99.90;;;;;;5024781;28;20081;-51
2021/11/18 02:24:41;;;;;;;7.03;2.03;;;7.20;99.90;;;;;;5025259;28;20172;-54
2021/11/18 02:27:16;;;;;;;6.10;2.47;;;7.40;99.90;;;;;;5025218;28;20102;-54
2021/11/18 02:29:46;;;;;;;8.07;2.35;;;7.50;99.90;;;;;;5024172;28;20613;-54
2021/11/18 02:32:17;;;;;;;5.25;1.90;;;7.50;99.90;;;;;;5025193;28;20045;-53
2021/11/18 02:34:58;;;;;;;8.07;2.42;;;7.60;99.90;;;;;;5027000;28;20080;-49
2021/11/18 02:37:25;;;;;;;8.75;2.25;;;7.60;99.90;;;;;;5027278;28;20077;-49
2021/11/18 02:39:52;;;;;;;7.68;2.20;;;7.70;99.90;;;;;;5026798;28;20049;-54
2021/11/18 02:42:19;;;;;;;4.72;1.95;;;7.70;99.90;;;;;;5028002;28;20168;-55
2021/11/18 02:44:46;;;;;;;11.63;2.35;;;7.70;99.90;;;;;;5028504;28;20132;-53
2021/11/18 02:47:13;;;;;;;5.85;2.20;;;7.80;99.90;;;;;;5029460;28;20080;-51
2021/11/18 02:49:45;;;;;;;5.60;2.35;;;7.80;99.90;;;;;;5027962;28;20096;-49
2021/11/18 02:52:13;;;;;;;5.63;2.60;;;7.80;99.90;;;;;;5029255;28;20073;-51
2021/11/18 02:54:40;;;;;;;5.03;2.17;;;7.80;99.90;;;;;;5028096;28;20080;-51
2021/11/18 02:57:07;;;;;;;6.38;2.67;;;7.80;99.90;;;;;;5029187;28;20077;-53
2021/11/18 02:59:36;;;;;;;7.95;2.55;;;7.90;99.90;;;;;;5027877;28;20184;-50
2021/11/18 03:02:04;;;;;;;7.93;2.97;;;7.80;99.90;;;;;;5029583;28;20132;-54
2021/11/18 03:04:31;;;;;;;10.30;2.90;;;7.80;99.90;;;;;;5029315;28;20057;-54
2021/11/18 03:07:00;;;;;;;9.40;3.10;;;7.80;99.90;;;;;;5029853;28;20088;-49
2021/11/18 03:09:28;;;;;;;7.60;2.67;;;7.70;99.90;;;;;;5029381;28;20134;-52
2021/11/18 03:11:55;;;;;;;8.55;2.60;;;7.70;99.90;;;;;;5028996;28;20113;-49
2021/11/18 03:14:22;;;;;;;8.40;3.35;;;7.60;99.90;;;;;;5026073;28;20052;-54
2021/11/18 03:16:49;;;;;;;6.43;2.35;;;7.60;99.90;;;;;;5028727;28;20468;-53
2021/11/18 03:19:15;;;;;;;6.30;2.28;;;7.60;99.90;;;;;;5027783;28;20088;-53
2021/11/18 03:21:42;;;;;;;7.55;2.85;;;7.60;99.90;;;;;;5025518;28;20092;-49
2021/11/18 03:24:09;;;;;;;7.80;2.80;;;7.50;99.90;;;;;;5028754;28;20089;-50
2021/11/18 03:26:36;;;;;;;7.70;2.95;;;7.50;99.90;;;;;;5028929;28;20223;-48
2021/11/18 03:29:03;;;;;;;6.30;2.22;;;7.50;99.90;;;;;;5028901;28;20081;-49
2021/11/18 03:31:30;;;;;;;6.90;2.60;;;7.50;99.90;;;;;;5026508;28;20096;-51
2021/11/18 03:34:03;;;;;;;4.68;2.30;;;7.50;99.90;;;;;;5028672;28;20150;-52
2021/11/18 03:36:29;;;;;;;5.17;2.20;;;7.50;99.90;;;;;;5027307;28;20723;-50
2021/11/18 03:38:57;;;;;;;4.03;2.00;;;7.60;99.90;;;;;;5027255;28;20105;-49
2021/11/18 03:41:25;;;;;;;8.02;2.88;;;7.50;99.90;;;;;;5027696;28;20073;-50
2021/11/18 03:43:54;;;;;;;4.68;1.98;;;7.50;99.90;;;;;;5027469;28;20141;-48
2021/11/18 03:46:29;;;;;;;4.35;1.73;;;7.60;99.90;;;;;;5026343;28;20153;-48
2021/11/18 03:48:56;;;;;;;7.50;2.33;;;7.50;99.90;;;;;;5029037;28;20128;-54
2021/11/18 03:51:23;;;;;;;5.88;1.80;;;7.50;99.90;;;;;;5028628;28;20125;-52
2021/11/18 03:53:50;;;;;;;5.03;1.80;;;7.50;99.90;;;;;;5028077;28;20081;-54
2021/11/18 03:56:21;;;;;;;4.65;1.90;;;7.50;99.90;;;;;;5026835;28;20591;-49
2021/11/18 03:58:48;;;;;;;6.70;1.80;;;7.40;99.90;;;;;;5026670;28;20132;-53
2021/11/18 04:01:15;;;;;;;6.82;1.80;;;7.40;99.90;;;;;;5026341;28;20132;-52
2021/11/18 04:03:42;;;;;;;4.68;1.65;;;7.40;99.90;;;;;;5028146;28;20118;-50
2021/11/18 04:06:09;;;;;;;4.30;1.90;;;7.40;99.90;;;;;;5028403;28;20500;-52
2021/11/18 04:08:36;;;;;;;7.70;2.22;;;7.30;99.90;;;;;;5028241;28;20057;-50
2021/11/18 04:11:03;;;;;;;6.50;2.30;;;7.40;99.90;;;;;;5027936;28;20128;-49
2021/11/18 04:13:30;;;;;;;5.97;2.00;;;7.40;99.90;;;;;;5025903;28;20540;-51
2021/11/18 04:15:56;;;;;;;5.80;2.35;;;7.40;99.90;;;;;;5026354;28;20085;-53
2021/11/18 04:18:23;;;;;;;4.93;2.15;;;7.40;99.90;;;;;;5028091;28;20499;-48
2021/11/18 04:20:51;;;;;;;4.55;1.88;;;7.40;99.90;;;;;;5026262;28;20136;-53
2021/11/18 04:23:19;;;;;;;5.03;1.83;;;7.40;99.90;;;;;;5027993;28;20479;-49
2021/11/18 04:25:46;;;;;;;4.75;1.90;;;7.40;99.90;;;;;;5026757;28;20045;-53
2021/11/18 04:28:13;;;;;;;5.80;2.00;;;7.40;99.90;;;;;;5025767;28;20112;-54
2021/11/18 04:30:54;;;;;;;4.85;1.50;;;7.40;99.90;;;;;;5026774;28;20076;-52
2021/11/18 04:33:21;;;;;;;6.13;2.03;;;7.40;99.90;;;;;;5026499;28;20085;-54
2021/11/18 04:35:48;;;;;;;4.65;1.65;;;7.40;99.90;;;;;;5027447;28;20496;-53
2021/11/18 04:38:15;;;;;;;4.57;1.50;;;7.40;99.90;;;;;;5027633;28;20125;-54
2021/11/18 04:40:42;;;;;;;4.82;1.42;;;7.40;99.90;;;;;;5026961;28;20081;-53
2021/11/18 04:43:08;;;;;;;3.88;1.90;;;7.30;99.90;;;;;;5026529;28;20696;-54
2021/11/18 04:45:35;;;;;;;4.70;1.60;;;7.30;99.90;;;;;;5026379;28;20092;-49
2021/11/18 04:48:02;;;;;;;4.82;1.42;;;7.20;99.90;;;;;;5027357;28;20119;-50
2021/11/18 04:50:29;;;;;;;3.58;1.70;;;7.10;99.90;;;;;;5027354;28;20157;-53
2021/11/18 04:52:57;;;;;;;4.40;1.30;;;7.10;99.90;;;;;;5025617;28;20081;-51
2021/11/18 04:55:25;;;;;;;3.50;1.48;;;7.00;99.90;;;;;;5027142;28;20157;-54
2021/11/18 04:57:52;;;;;;;3.45;1.35;;;7.00;99.90;;;;;;5025517;28;20081;-54
2021/11/18 05:00:22;;;;;;;4.35;1.58;;;6.90;99.90;;;;;;5026303;28;20726;-51
2021/11/18 05:02:49;;;;;;;3.65;1.85;;;6.90;99.90;;;;;;5025478;28;20049;-52
2021/11/18 05:05:17;;;;;;;3.65;1.30;;;6.80;99.90;;;;;;5025303;28;20045;-51
2021/11/18 05:07:44;;;;;;;5.63;1.73;;;6.80;99.90;;;;;;5027079;28;20085;-50
2021/11/18 05:10:10;;;;;;;3.80;1.38;;;6.70;99.90;;;;;;5026530;28;20449;-52
2021/11/18 05:12:37;;;;;;;2.58;1.33;;;6.70;99.90;;;;;;5025817;28;20077;-54
2021/11/18 05:15:05;;;;;;;2.53;1.40;;;6.70;99.90;;;;;;5025865;28;20084;-52
2021/11/18 05:17:31;;;;;;;4.03;1.60;;;6.60;99.90;;;;;;5026946;28;20673;-53
2021/11/18 05:19:58;;;;;;;3.17;1.25;;;6.70;99.90;;;;;;5026567;28;20133;-51
2021/11/18 05:22:25;;;;;;;2.42;1.35;;;6.70;99.90;;;;;;5026126;28;20129;-53
2021/11/18 05:24:52;;;;;;;4.53;1.23;;;6.80;99.90;;;;;;5026950;28;20081;-52
2021/11/18 05:27:20;;;;;;;3.05;1.60;;;6.80;99.90;;;;;;5026372;28;20607;-52
2021/11/18 05:29:47;;;;;;;4.97;1.60;;;6.70;99.90;;;;;;5025001;28;20492;-50
2021/11/18 05:32:13;;;;;;;3.38;2.00;;;6.70;99.90;;;;;;5026652;28;20083;-54
2021/11/18 05:34:40;;;;;;;3.17;1.40;;;6.80;99.90;;;;;;5025135;28;20081;-51
2021/11/18 05:37:07;;;;;;;6.18;1.73;;;6.80;99.90;;;;;;5025999;28;20093;-53
2021/11/18 05:39:34;;;;;;;5.32;1.75;;;6.80;99.90;;;;;;5026183;28;20132;-49
2021/11/18 05:42:01;;;;;;;5.18;1.63;;;6.90;99.90;;;;;;5025557;28;20073;-53
2021/11/18 05:44:28;;;;;;;6.35;1.80;;;6.90;99.90;;;;;;5024736;28;20085;-54
2021/11/18 05:46:54;;;;;;;2.42;1.20;;;7.00;99.90;;;;;;5026653;28;20045;-52
2021/11/18 05:49:21;;;;;;;4.05;1.50;;;7.00;99.90;;;;;;5010642;28;20474;-53
2021/11/18 05:51:48;;;;;;;3.08;1.58;;;7.10;99.90;;;;;;5004571;28;20073;-51
2021/11/18 05:54:15;;;;;;;4.28;1.48;;;7.10;99.90;;;;;;5023690;28;20045;-51
2021/11/18 05:56:45;;;;;;;5.57;1.60;;;7.10;99.90;;;;;;5023881;28;20586;-53
2021/11/18 05:59:12;;;;;;;3.22;1.77;;;7.20;99.90;;;;;;5022225;28;20049;-54
2021/11/18 06:01:39;;;;;;;3.85;1.60;;;7.20;99.90;;;;;;5022357;28;20562;-52
2021/11/18 06:04:06;;;;;;;3.65;1.27;;;7.30;99.90;;;;;;5019957;28;20049;-52
2021/11/18 06:06:33;;;;;;;3.45;1.40;;;7.30;99.90;;;;;;5022179;28;20511;-52
2021/11/18 06:09:03;;;;;;;5.72;1.80;;;7.30;99.90;;;;;;5021449;28;20139;-51
2021/11/18 06:11:30;;;;;;;3.20;1.27;;;7.30;99.90;;;;;;5020924;28;20083;-53
2021/11/18 06:13:57;;;;;;;3.00;1.25;;;7.30;99.90;;;;;;5018888;28;20167;-52
2021/11/18 06:16:26;;;;;;;1.52;0.95;;;7.40;99.90;;;;;;5018913;28;20120;-52
2021/11/18 06:18:54;;;;;;;4.57;1.63;;;7.40;99.90;;;;;;5019422;28;20053;-48
2021/11/18 06:21:22;;;;;;;6.75;3.25;;;7.40;99.90;;;;;;5018538;28;20084;-49
2021/11/18 06:23:48;;;;;;;6.72;3.45;;;7.40;99.90;;;;;;5017776;28;20561;-52
2021/11/18 06:26:17;;;;;;;4.95;2.92;;;7.40;99.90;;;;;;5019857;28;20482;-50
2021/11/18 06:28:44;;;;;;;6.35;3.42;;;7.40;99.90;;;;;;5019663;28;20053;-50
2021/11/18 06:31:13;;;;;;;6.78;3.15;;;7.30;99.90;;;;;;5018890;28;20084;-49
2021/11/18 06:33:43;;;;;;;4.93;2.53;;;7.30;99.90;;;;;;5016253;28;20625;-50
2021/11/18 06:36:09;;;;;;;5.53;2.15;;;7.30;99.90;;;;;;5016386;28;20449;-49
2021/11/18 06:38:37;;;;;;;3.58;1.65;;;7.20;99.90;;;;;;5013080;28;20139;-52
2021/11/18 06:41:04;;;;;;;3.65;2.08;;;7.20;99.90;;;;;;5015787;28;20137;-50
2021/11/18 06:43:31;;;;;;;3.30;1.85;;;7.20;99.90;;;;;;5016486;28;20429;-50
2021/11/18 06:45:58;;;;;;;3.85;1.73;;;7.10;99.90;;;;;;5017072;28;20143;-48
2021/11/18 06:48:30;;;;;;;2.90;1.90;;;7.10;99.90;;;;;;5017290;28;20365;-52
2021/11/18 06:50:59;;;;;;;5.47;1.92;;;7.10;99.90;;;;;;5017865;28;20411;-50
2021/11/18 06:53:27;;;;;;;4.75;1.88;;;7.10;99.90;;;;;;5015457;28;20758;-49
2021/11/18 06:55:54;;;;;;;4.25;1.95;;;7.00;99.90;;;;;;5017643;28;20128;-47
2021/11/18 06:58:21;;;;;;;3.35;1.60;;;7.00;99.90;;;;;;5013727;28;20322;-46
2021/11/18 07:00:47;;;;;;;5.53;1.42;;;7.00;99.90;;;;;;5016772;28;20185;-46
2021/11/18 07:03:14;;;;;;;2.72;1.25;;;7.00;99.90;;;;;;5016613;28;20100;-50
2021/11/18 07:05:41;;;;;;;2.55;1.38;;;7.00;99.90;;;;;;5017309;28;20477;-53
2021/11/18 07:08:08;;;;;;;3.97;1.77;;;7.00;99.90;;;;;;5016955;28;20045;-53
2021/11/18 07:10:38;;;;;;;3.70;1.33;;;7.00;99.90;;;;;;5014579;28;20349;-50
2021/11/18 07:13:06;;;;;;;3.55;1.38;;;7.00;99.90;;;;;;5015880;28;20148;-52
2021/11/18 07:15:33;;;;;;;3.20;1.45;;;7.00;99.90;;;;;;4996428;28;20149;-51
2021/11/18 07:18:00;;;;;;;5.68;1.65;;;7.10;99.90;;;;;;5010234;28;20132;-52
2021/11/18 07:20:26;;;;;;;4.82;1.88;;;7.10;99.90;;;;;;5016200;28;20093;-51
2021/11/18 07:22:53;;;;;;;5.55;2.00;;;7.10;99.90;;;;;;5017174;28;20132;-51
2021/11/18 07:25:22;;;;;;;4.00;1.63;;;7.00;99.90;;;;;;5017965;28;20477;-53
2021/11/18 07:27:49;;;;;;;5.35;2.50;;;7.00;99.90;;;;;;5017687;28;20117;-53
2021/11/18 07:30:16;;;;;;;5.20;1.92;;;6.90;99.90;;;;;;5018909;28;20135;-52
2021/11/18 07:32:43;;;;;;;3.97;1.50;;;6.90;99.90;;;;;;5021218;28;20212;-52
2021/11/18 07:35:10;;;;;;;4.97;1.88;;;6.90;99.90;;;;;;5021107;28;20077;-51
2021/11/18 07:37:37;;;;;;;4.30;1.73;;;6.90;99.90;;;;;;5021254;28;20087;-53
2021/11/18 07:40:05;;;;;;;5.60;1.67;;;6.90;99.90;;;;;;5020859;28;20129;-50
2021/11/18 07:42:32;;;;;;;3.95;1.60;;;6.90;99.90;;;;;;5020736;28;20092;-51
2021/11/18 07:44:59;;;;;;;3.35;1.40;;;7.00;99.90;;;;;;5020384;28;20457;-52
2021/11/18 07:47:26;;;;;;;3.25;1.33;;;7.00;99.90;;;;;;5021225;28;20448;-53
2021/11/18 07:49:53;;;;;;;4.90;1.38;;;7.00;99.90;;;;;;5020868;28;20125;-53
2021/11/18 07:52:20;;;;;;;2.80;1.30;;;7.10;99.90;;;;;;5018449;28;20096;-52
2021/11/18 07:54:46;;;;;;;4.63;1.63;;;7.20;99.90;;;;;;5020285;28;20130;-56
2021/11/18 07:57:13;;;;;;;4.40;2.00;;;7.20;99.90;;;;;;5020765;28;20111;-52
2021/11/18 07:59:40;;;;;;;5.20;1.20;;;7.30;99.90;;;;;;5019040;28;20081;-52
2021/11/18 08:02:07;;;;;;;5.00;1.92;;;7.30;99.90;;;;;;5020270;28;20099;-51
2021/11/18 08:04:34;;;;;;;6.78;1.55;;;7.50;99.90;;;;;;5020260;28;20532;-53
2021/11/18 08:07:03;;;;;;;3.35;1.55;;;7.60;99.90;;;;;;5020536;28;20132;-53
2021/11/18 08:09:30;;;;;;;6.20;2.00;;;7.80;99.90;;;;;;5019418;28;20467;-52
2021/11/18 08:11:58;;;;;;;4.97;1.70;;;8.00;99.90;;;;;;5020026;28;20532;-53
2021/11/18 08:14:26;;;;;;;7.60;1.58;;;8.10;99.90;;;;;;5018456;28;20639;-54
2021/11/18 08:16:53;;;;;;;4.53;1.85;;;8.20;99.90;;;;;;5019167;28;20861;-53
2021/11/18 08:19:20;;;;;;;6.50;1.92;;;8.30;99.90;;;;;;5018995;28;20096;-49
2021/11/18 08:21:48;;;;;;;3.40;1.55;;;8.30;99.90;;;;;;5019097;28;20414;-52
2021/11/18 08:24:16;;;;;;;7.68;2.15;;;8.50;99.90;;;;;;5017709;28;20471;-51
2021/11/18 08:26:43;;;;;;;4.45;1.92;;;8.60;99.90;;;;;;5018326;28;20562;-54
2021/11/18 08:29:11;;;;;;;4.03;1.90;;;8.70;99.90;;;;;;5015872;28;20476;-49
2021/11/18 08:31:39;;;;;;;9.32;2.40;;;8.80;99.90;;;;;;5019977;28;20698;-50
2021/11/18 08:34:06;;;;;;;6.20;2.00;;;8.80;99.90;;;;;;5018134;28;20079;-51
2021/11/18 08:36:37;;;;;;;5.10;2.28;;;8.90;99.90;;;;;;5020116;28;20061;-51
2021/11/18 08:39:08;;;;;;;8.40;2.15;;;9.00;99.90;;;;;;5020412;28;20081;-53
2021/11/18 08:41:35;;;;;;;6.22;1.80;;;9.10;99.90;;;;;;5017791;28;20097;-52
2021/11/18 08:44:02;;;;;;;8.95;2.30;;;9.20;99.90;;;;;;5018604;28;20113;-54
2021/11/18 08:46:29;;;;;;;5.72;2.45;;;9.20;99.90;;;;;;5019624;28;20107;-52
2021/11/18 08:49:00;;;;;;;5.68;1.92;;;9.30;99.90;;;;;;5019047;28;20150;-54
2021/11/18 08:51:28;;;;;;;5.75;1.88;;;9.40;99.90;;;;;;5019367;28;20050;-53
2021/11/18 08:53:55;;;;;;;6.72;2.45;;;9.40;99.90;;;;;;5018241;28;20145;-53
2021/11/18 08:56:23;;;;;;;8.65;2.33;;;9.40;99.90;;;;;;5017131;28;20057;-53
2021/11/18 08:58:54;;;;;;;5.95;2.20;;;9.50;99.90;;;;;;5018486;28;20151;-53
2021/11/18 09:01:36;;;;;;;4.78;2.10;;;9.60;99.90;;;;;;5018651;28;20358;-52
2021/11/18 09:04:08;;;;;;;6.85;1.95;;;9.60;99.90;;;;;;5018573;28;20057;-54
2021/11/18 09:06:35;;;;;;;5.05;2.28;;;9.70;99.90;;;;;;5019241;28;20091;-53
2021/11/18 09:09:03;;;;;;;8.18;2.17;;;9.70;99.90;;;;;;5018762;28;20331;-54
2021/11/18 09:11:30;;;;;;;5.82;2.22;;;9.70;99.90;;;;;;5019015;28;20060;-53
2021/11/18 09:13:57;;;;;;;5.32;2.10;;;9.80;99.90;;;;;;5018164;28;20123;-55
2021/11/18 09:16:24;;;;;;;9.18;2.42;;;9.90;99.90;;;;;;5017131;28;20135;-50
2021/11/18 09:18:51;;;;;;;8.50;2.75;;;10.00;99.90;;;;;;5015362;28;20469;-52
2021/11/18 09:21:19;;;;;;;8.77;2.30;;;10.10;99.90;;;;;;5015905;28;20145;-53
2021/11/18 09:24:02;;;;;;;6.93;2.30;;;10.20;99.90;;;;;;5016571;28;20060;-53
2021/11/18 09:26:31;;;;;;;9.70;2.10;;;10.20;99.90;;;;;;5015319;28;20049;-51
2021/11/18 09:28:59;;;;;;;6.93;2.28;;;10.30;99.90;;;;;;5015377;28;20135;-51
2021/11/18 09:31:26;;;;;;;6.95;2.50;;;10.30;99.90;;;;;;5016375;28;20384;-52
2021/11/18 09:33:53;;;;;;;6.47;2.75;;;10.40;99.90;;;;;;5013220;28;20049;-51
2021/11/18 09:36:22;;;;;;;4.47;1.92;;;10.40;99.90;;;;;;5017243;28;20049;-52
2021/11/18 09:38:49;;;;;;;7.13;2.72;;;10.50;99.90;;;;;;5015925;28;20077;-53
2021/11/18 09:41:51;;;;;;;3.85;2.22;;;10.60;99.90;;;;;;5014949;28;20084;-53
2021/11/18 09:44:39;;;;;;;7.78;2.08;;;10.60;99.90;;;;;;5012049;28;20471;-50
2021/11/18 09:47:35;;;;;;;8.73;2.50;;;10.70;99.90;;;;;;5014349;28;20097;-53
2021/11/18 09:50:17;;;;;;;7.30;2.78;;;10.70;99.90;;;;;;5008258;28;20424;-53
2021/11/18 09:52:59;;;;;;;6.07;2.40;;;10.80;99.90;;;;;;5013905;28;21141;-54
2021/11/18 09:55:34;;;;;;;9.13;3.22;;;10.80;99.90;;;;;;5014038;28;20605;-53
2021/11/18 09:58:21;;;;;;;5.85;2.50;;;10.90;99.90;;;;;;5012867;28;20144;-54
2021/11/18 10:01:02;;;;;;;4.78;2.55;;;10.90;99.90;;;;;;5014288;28;20476;-53
2021/11/18 10:03:35;;;;;;;8.15;3.08;;;10.90;99.90;;;;;;5000061;28;20401;-54
2021/11/18 10:06:05;;;;;;;5.68;2.50;;;11.00;99.90;;;;;;5016216;28;20045;-52
2021/11/18 10:09:02;;;;;;;7.95;3.08;;;11.00;99.90;;;;;;5015336;28;20134;-51
2021/11/18 10:11:52;;;;;;;7.10;2.67;;;11.00;99.90;;;;;;5012580;28;20560;-54
2021/11/18 10:14:49;;;;;;;8.45;2.70;;;11.00;99.90;;;;;;5013637;28;20045;-52
2021/11/18 10:17:33;;;;;;;12.43;3.38;;;11.10;99.90;;;;;;5014488;28;20168;-53
2021/11/18 10:20:10;;;;;;;8.43;2.85;;;11.10;99.90;;;;;;5014056;28;20148;-54
2021/11/18 10:22:42;;;;;;;4.35;2.42;;;11.20;99.90;;;;;;5015886;28;20671;-53
2021/11/18 10:25:14;;;;;;;7.35;2.97;;;11.20;99.90;;;;;;5014438;28;20525;-54
2021/11/18 10:27:49;;;;;;;5.60;2.65;;;11.30;99.90;;;;;;5016103;28;20537;-53
2021/11/18 10:30:41;;;;;;;9.65;4.32;;;11.30;99.90;;;;;;5014253;28;20112;-54
2021/11/18 10:33:15;;;;;;;10.95;6.13;;;11.30;99.90;;;;;;5010481;28;20045;-54
2021/11/18 10:36:00;;;;;;;;;;;11.40;99.90;;;;;;5016186;28;20123;-53
2021/11/18 10:38:33;;;;;;;10.38;4.18;;;11.30;99.90;;;;;;5014756;28;19925;-53
2021/11/18 10:41:15;;;;;;;6.78;3.42;;;11.40;99.90;;;;;;5014330;28;20050;-53
2021/11/18 10:43:43;;;;;;;7.68;3.13;;;11.40;99.90;;;;;;5013672;28;20076;-53
2021/11/18 10:46:20;;;;;;;10.18;4.03;;;11.50;99.90;;;;;;5014393;28;20052;-53
2021/11/18 10:49:00;;;;;;;8.23;3.63;;;11.50;99.90;;;;;;5015015;28;20038;-54
2021/11/18 10:51:54;;;;;;;8.50;3.83;;;11.60;99.90;;;;;;5015196;28;20053;-54
2021/11/18 10:54:44;;;;;;;5.65;2.42;;;11.70;99.90;;;;;;5016001;28;20445;-54
2021/11/18 10:57:20;;;;;;;7.28;2.90;;;11.70;99.90;;;;;;5015301;28;20093;-53
2021/11/18 10:59:50;;;;;;;8.05;2.63;;;11.80;99.90;;;;;;5014912;28;20110;-52
2021/11/18 11:02:31;;;;;;;7.38;2.80;;;11.80;99.90;;;;;;5015450;28;20050;-55
2021/11/18 11:05:00;;;;;;;7.57;2.95;;;11.90;99.90;;;;;;5020173;28;20369;-53
2021/11/18 11:07:36;;;;;;;7.40;3.05;;;11.90;99.90;;;;;;5019215;28;20068;-51
2021/11/18 11:10:04;;;;;;;4.00;2.65;;;12.00;99.90;;;;;;5019860;28;20096;-51
2021/11/18 11:12:35;;;;;;;8.57;2.67;;;12.10;99.90;;;;;;5017512;28;20135;-56
2021/11/18 11:15:02;;;;;;;8.07;2.38;;;12.10;99.90;;;;;;5017796;28;20180;-53
2021/11/18 11:17:32;;;;;;;8.65;2.60;;;12.20;99.90;;;;;;5018347;28;20373;-53
2021/11/18 11:20:14;;;;;;;6.80;2.53;;;12.20;99.90;;;;;;5020207;28;20061;-54
2021/11/18 11:22:59;;;;;;;6.30;2.70;;;12.20;99.90;;;;;;5018728;28;20081;-54
2021/11/18 11:25:50;;;;;;;6.10;2.63;;;12.30;99.90;;;;;;5019001;28;20156;-55
2021/11/18 11:28:35;;;;;;;8.48;3.08;;;12.30;99.90;;;;;;5018214;28;20073;-53
2021/11/18 11:31:30;;;;;;;3.70;2.15;;;12.40;99.90;;;;;;5018895;28;20045;-49
2021/11/18 11:34:18;;;;;;;4.60;2.10;;;12.50;99.90;;;;;;5018816;28;20057;-54
2021/11/18 11:37:20;;;;;;;5.50;2.40;;;12.60;99.90;;;;;;5019862;28;20067;-54
2021/11/18 11:40:27;;;;;;;6.80;2.63;;;12.70;99.90;;;;;;5018718;28;20081;-53
2021/11/18 11:43:26;;;;;;;6.15;2.33;;;12.80;99.80;;;;;;5018133;28;20093;-54
2021/11/18 11:46:17;;;;;;;5.80;2.35;;;12.80;99.70;;;;;;5018625;28;20080;-54
2021/11/18 11:48:56;;;;;;;4.53;2.08;;;13.00;99.50;;;;;;5018968;28;20124;-55
2021/11/18 11:51:41;;;;;;;6.35;2.20;;;13.20;99.50;;;;;;5019514;28;20488;-52
2021/11/18 11:54:27;;;;;;;4.43;2.10;;;13.30;99.00;;;;;;5016685;28;20103;-55
2021/11/18 11:57:10;;;;;;;6.18;2.22;;;13.60;98.50;;;;;;5018085;28;20472;-55
2021/11/18 11:59:43;;;;;;;4.45;1.80;;;13.70;98.00;;;;;;5016464;28;20462;-54
2021/11/18 12:02:14;;;;;;;6.05;2.10;;;13.90;97.80;;;;;;4999291;28;20173;-53
2021/11/18 12:04:55;;;;;;;3.13;1.48;;;14.00;97.60;;;;;;5017312;28;20053;-56
2021/11/18 12:07:47;;;;;;;3.78;2.08;;;14.10;97.50;;;;;;4997015;28;20081;-55
2021/11/18 12:10:50;;;;;;;3.63;1.80;;;14.30;97.30;;;;;;5019023;28;20204;-53
2021/11/18 12:13:26;;;;;;;4.75;2.50;;;14.40;97.00;;;;;;5014586;28;20471;-54
2021/11/18 12:15:59;;;;;;;5.22;2.05;;;14.30;97.00;;;;;;5015548;28;20600;-55
2021/11/18 12:18:50;;;;;;;3.97;1.58;;;14.30;97.20;;;;;;5017408;28;20049;-53
2021/11/18 12:21:17;;;;;;;3.80;2.10;;;14.50;97.00;;;;;;5018633;28;20555;-55
2021/11/18 12:24:06;;;;;;;4.60;2.28;;;14.70;96.50;;;;;;5016121;28;20531;-53
2021/11/18 12:26:42;;;;;;;4.85;2.03;;;14.80;96.60;;;;;;5019233;28;20465;-51
2021/11/18 12:29:19;;;;;;;3.53;1.90;;;14.70;96.60;;;;;;5017288;28;20347;-50
2021/11/18 12:32:08;;;;;;;3.80;1.77;;;14.90;96.40;;;;;;5018858;28;20143;-55
2021/11/18 12:34:55;;;;;;;3.53;1.73;;;15.00;96.20;;;;;;5018587;28;20634;-53
2021/11/18 12:37:24;;;;;;;5.72;2.75;;;15.10;96.00;;;;;;5005496;28;20045;-56
2021/11/18 12:40:13;;;;;;;4.40;1.88;;;15.30;95.80;;;;;;5017958;28;20053;-55
2021/11/18 12:42:54;;;;;;;3.35;1.63;;;15.30;95.50;;;;;;5003719;28;20132;-54
2021/11/18 12:45:34;;;;;;;3.20;1.30;;;15.60;95.10;;;;;;5001991;28;20387;-51
2021/11/18 12:48:17;;;;;;;3.72;1.90;;;15.80;94.70;;;;;;5010989;28;20050;-55
2021/11/18 12:51:17;;;;;;;3.20;1.50;;;15.90;94.90;;;;;;5018435;28;20107;-53
2021/11/18 12:53:50;;;;;;;2.72;1.60;;;16.00;94.60;;;;;;5003589;28;20132;-54
2021/11/18 12:56:23;;;;;;;;;;;15.90;94.50;;;;;;5018856;28;20154;-55
2021/11/18 12:58:54;;;;;;;3.65;1.38;;;15.60;95.40;;;;;;5019409;28;20024;-55
2021/11/18 13:01:21;;;;;;;4.25;2.00;;;15.30;95.70;;;;;;5016721;28;20560;-56
2021/11/18 13:03:51;;;;;;;3.88;1.60;;;15.10;96.30;;;;;;5019316;28;20088;-55
2021/11/18 13:06:39;;;;;;;4.50;1.73;;;14.90;96.80;;;;;;5019627;28;20350;-54
2021/11/18 13:09:10;;;;;;;4.63;1.83;;;14.70;97.40;;;;;;5014603;28;20057;-52
2021/11/18 13:12:00;;;;;;;3.75;1.67;;;14.60;97.40;;;;;;5019281;28;20311;-55
2021/11/18 13:14:34;;;;;;;2.85;1.73;;;14.50;97.70;;;;;;5017089;28;20185;-55
2021/11/18 13:17:22;;;;;;;3.45;1.80;;;14.50;97.80;;;;;;5018055;28;20050;-54